Time;durP1;ratioP1;P1;durP2;ratioP2;P2;SDS_P1;SDS_P2;PMS_P1;PMS_P2;Temp;Humidity;BMP_temperature;BMP_pressure;BME280_temperature;BME280_humidity;BME280_pressure;Samples;Min_cycle;Max_cycle;Signal;HPM_P1;HPM_P2
2021/04/06 00:02:18;;;;;;;4.47;1.00;;;1.30;99.90;;;;;;5050350;28;20842;-69
2021/04/06 00:04:50;;;;;;;4.40;1.03;;;1.40;99.90;;;;;;5050065;28;20942;-68
2021/04/06 00:07:18;;;;;;;5.97;1.30;;;1.40;99.90;;;;;;5051291;28;20441;-67
2021/04/06 00:09:58;;;;;;;2.60;0.93;;;1.30;99.90;;;;;;5032837;28;20496;-68
2021/04/06 00:12:25;;;;;;;6.17;1.10;;;1.20;99.90;;;;;;5050653;28;20504;-67
2021/04/06 00:14:52;;;;;;;3.53;1.00;;;1.20;99.90;;;;;;5051262;28;20862;-67
2021/04/06 00:17:19;;;;;;;4.10;1.23;;;1.20;99.90;;;;;;5050897;28;20413;-68
2021/04/06 00:19:47;;;;;;;5.60;1.00;;;1.20;99.90;;;;;;5050825;28;20418;-66
2021/04/06 00:22:15;;;;;;;3.07;1.07;;;1.20;99.90;;;;;;5050909;28;20464;-68
2021/04/06 00:24:46;;;;;;;4.90;1.17;;;1.20;99.90;;;;;;5050731;28;20767;-67
2021/04/06 00:27:21;;;;;;;3.67;1.20;;;1.10;99.90;;;;;;5050969;28;20524;-66
2021/04/06 00:29:52;;;;;;;4.37;1.23;;;1.10;99.90;;;;;;5050767;28;20415;-67
2021/04/06 00:32:19;;;;;;;6.20;1.03;;;1.00;99.90;;;;;;5050997;28;22133;-67
2021/04/06 00:34:46;;;;;;;1.93;0.83;;;1.00;99.90;;;;;;5054307;28;20421;-68
2021/04/06 00:37:16;;;;;;;5.97;1.37;;;0.90;99.90;;;;;;5036924;28;20426;-68
2021/04/06 00:39:43;;;;;;;2.90;1.50;;;0.90;99.90;;;;;;5055059;28;20500;-66
2021/04/06 00:42:10;;;;;;;4.53;0.93;;;0.80;99.90;;;;;;5054582;28;20449;-66
2021/04/06 00:44:41;;;;;;;2.90;1.10;;;0.80;99.90;;;;;;5055126;28;20500;-67
2021/04/06 00:47:10;;;;;;;2.83;1.13;;;0.70;99.90;;;;;;5054299;28;20825;-66
2021/04/06 00:49:37;;;;;;;3.30;0.97;;;0.60;99.90;;;;;;5053760;28;20409;-68
2021/04/06 00:52:04;;;;;;;3.27;1.07;;;0.60;99.90;;;;;;5041132;28;20465;-68
2021/04/06 00:54:34;;;;;;;2.60;1.00;;;0.70;99.90;;;;;;5033663;28;20509;-67
2021/04/06 00:57:01;;;;;;;5.63;1.30;;;0.80;99.90;;;;;;5033857;28;20451;-70
2021/04/06 00:59:26;;;;;;;2.20;1.03;;;0.80;99.90;;;;;;5054271;28;20903;-67
2021/04/06 01:01:59;;;;;;;5.07;1.30;;;0.70;99.90;;;;;;5054692;28;20452;-67
2021/04/06 01:04:27;;;;;;;2.27;0.90;;;0.70;99.90;;;;;;5054249;28;20575;-67
2021/04/06 01:07:16;;;;;;;2.43;0.93;;;0.70;99.90;;;;;;5054655;28;20418;-67
2021/04/06 01:09:54;;;;;;;4.10;0.93;;;0.70;99.90;;;;;;5054598;28;20939;-67
2021/04/06 01:12:25;;;;;;;4.33;1.23;;;0.60;99.90;;;;;;5054326;28;20409;-69
2021/04/06 01:14:53;;;;;;;1.13;0.80;;;0.50;99.90;;;;;;5054408;28;20471;-66
2021/04/06 01:17:27;;;;;;;4.10;1.30;;;0.50;99.90;;;;;;5036883;28;20923;-67
2021/04/06 01:19:57;;;;;;;5.10;1.77;;;0.50;99.90;;;;;;5054277;28;20960;-66
2021/04/06 01:22:23;;;;;;;1.80;0.80;;;0.40;99.90;;;;;;5054204;28;20503;-68
2021/04/06 01:24:49;;;;;;;1.10;0.80;;;0.40;99.90;;;;;;5053798;28;20409;-69
2021/04/06 01:27:17;;;;;;;5.37;1.50;;;0.30;99.90;;;;;;5054123;28;20421;-66
2021/04/06 01:29:55;;;;;;;4.77;1.10;;;0.30;99.90;;;;;;5035990;28;20171;-67
2021/04/06 01:32:22;;;;;;;7.73;1.20;;;0.30;99.90;;;;;;5054210;28;20512;-68
2021/04/06 01:34:49;;;;;;;4.13;1.60;;;0.30;99.90;;;;;;5052552;28;20398;-67
2021/04/06 01:37:23;;;;;;;4.85;1.73;;;0.30;99.90;;;;;;5053847;28;20421;-66
2021/04/06 01:39:51;;;;;;;2.20;1.07;;;0.30;99.90;;;;;;5053164;28;20218;-66
2021/04/06 01:42:18;;;;;;;5.57;1.77;;;0.30;99.90;;;;;;5052768;28;20449;-66
2021/04/06 01:44:47;;;;;;;4.95;1.00;;;0.40;99.90;;;;;;5052898;28;20834;-67
2021/04/06 01:47:16;;;;;;;4.13;1.40;;;0.40;99.90;;;;;;5053777;28;20179;-69
2021/04/06 01:49:43;;;;;;;2.90;1.27;;;0.30;99.90;;;;;;5053696;28;20512;-67
2021/04/06 01:52:09;;;;;;;2.70;0.97;;;0.30;99.90;;;;;;5053799;28;20453;-66
2021/04/06 01:54:36;;;;;;;5.00;1.40;;;0.30;99.90;;;;;;5053588;28;20768;-67
2021/04/06 01:57:12;;;;;;;6.70;1.73;;;0.30;99.90;;;;;;5053084;28;20470;-66
2021/04/06 01:59:44;;;;;;;1.80;1.03;;;0.40;99.90;;;;;;5053524;28;20420;-68
2021/04/06 02:02:10;;;;;;;1.50;0.60;;;0.40;99.90;;;;;;5052145;28;20452;-68
2021/04/06 02:04:39;;;;;;;0.80;0.70;;;0.40;99.90;;;;;;5053617;28;20414;-65
2021/04/06 02:07:07;;;;;;;2.35;1.02;;;0.40;99.90;;;;;;5034465;28;20842;-66
2021/04/06 02:09:33;;;;;;;2.10;1.70;;;0.30;99.90;;;;;;5053257;28;20190;-66
2021/04/06 02:11:59;;;;;;;2.77;1.37;;;0.30;99.90;;;;;;5053247;28;20179;-67
2021/04/06 02:14:25;;;;;;;2.20;1.07;;;0.30;99.90;;;;;;5053070;28;20424;-66
2021/04/06 02:17:02;;;;;;;2.37;1.00;;;0.30;99.90;;;;;;5053433;28;20786;-67
2021/04/06 02:19:28;;;;;;;5.32;2.15;;;0.30;99.90;;;;;;5035138;28;20429;-67
2021/04/06 02:21:58;;;;;;;2.47;1.23;;;0.30;99.90;;;;;;5053258;28;20672;-70
2021/04/06 02:24:42;;;;;;;5.23;1.83;;;0.30;99.90;;;;;;5052723;28;20176;-65
2021/04/06 02:27:16;;;;;;;2.07;1.63;;;0.30;99.90;;;;;;5051700;28;20496;-65
2021/04/06 02:29:44;;;;;;;3.05;2.03;;;0.20;99.90;;;;;;5052007;28;20417;-65
2021/04/06 02:32:21;;;;;;;3.40;2.30;;;0.20;99.90;;;;;;5052694;28;20187;-65
2021/04/06 02:34:53;;;;;;;2.25;1.23;;;0.20;99.90;;;;;;5052950;28;20406;-65
2021/04/06 02:37:21;;;;;;;3.17;1.57;;;0.20;99.90;;;;;;5051772;28;20187;-66
2021/04/06 02:39:49;;;;;;;3.23;1.07;;;0.20;99.90;;;;;;5052561;28;20759;-67
2021/04/06 02:42:23;;;;;;;2.90;1.40;;;0.20;99.90;;;;;;5052359;28;20473;-68
2021/04/06 02:45:10;;;;;;;5.73;1.87;;;0.10;99.90;;;;;;5052393;28;20665;-68
2021/04/06 02:47:40;;;;;;;7.97;2.65;;;0.10;99.90;;;;;;5051758;28;20763;-66
2021/04/06 02:50:08;;;;;;;5.53;2.37;;;0.00;99.90;;;;;;5035002;28;20179;-67
2021/04/06 02:52:36;;;;;;;5.15;1.52;;;0.00;99.90;;;;;;5049899;28;20464;-67
2021/04/06 02:55:04;;;;;;;3.20;2.43;;;0.00;99.90;;;;;;5052365;28;20176;-66
2021/04/06 02:57:30;;;;;;;6.47;1.27;;;0.00;99.90;;;;;;5051495;28;20456;-65
2021/04/06 02:59:57;;;;;;;5.38;2.28;;;0.00;99.90;;;;;;5052507;28;20556;-67
2021/04/06 03:02:22;;;;;;;5.07;1.80;;;0.00;99.90;;;;;;5051961;28;20213;-66
2021/04/06 03:04:49;;;;;;;9.10;2.50;;;-0.10;99.90;;;;;;5052069;28;20633;-69
2021/04/06 03:07:25;;;;;;;5.50;1.42;;;0.00;99.90;;;;;;5051953;28;20186;-67
2021/04/06 03:09:59;;;;;;;7.33;2.80;;;-0.10;99.90;;;;;;5051864;28;20179;-68
2021/04/06 03:12:31;;;;;;;5.93;1.92;;;-0.10;99.90;;;;;;5051819;28;20448;-66
2021/04/06 03:15:03;;;;;;;6.38;2.38;;;-0.20;99.90;;;;;;5052043;28;20176;-67
2021/04/06 03:17:45;;;;;;;3.88;1.63;;;-0.20;99.90;;;;;;5051171;28;20566;-68
2021/04/06 03:20:12;;;;;;;6.45;2.28;;;-0.20;99.90;;;;;;5050969;28;20233;-68
2021/04/06 03:22:38;;;;;;;9.70;3.22;;;-0.20;99.90;;;;;;5051148;28;20179;-66
2021/04/06 03:25:05;;;;;;;13.53;2.70;;;-0.20;99.90;;;;;;5051595;28;20641;-69
2021/04/06 03:27:32;;;;;;;5.38;2.35;;;-0.10;99.90;;;;;;5051598;28;20671;-70
2021/04/06 03:29:58;;;;;;;6.78;2.35;;;-0.10;99.90;;;;;;5051828;28;20175;-68
2021/04/06 03:32:24;;;;;;;5.10;2.23;;;0.00;99.90;;;;;;5051420;28;20203;-67
2021/04/06 03:34:52;;;;;;;3.20;1.75;;;0.00;99.90;;;;;;5051613;28;20166;-68
2021/04/06 03:37:17;;;;;;;3.05;2.00;;;0.00;99.90;;;;;;5051342;28;20175;-68
2021/04/06 03:39:43;;;;;;;3.80;1.10;;;0.10;99.90;;;;;;5051420;28;20651;-67
2021/04/06 03:42:09;;;;;;;4.20;1.43;;;0.10;99.90;;;;;;5051449;28;20187;-68
2021/04/06 03:44:42;;;;;;;2.00;1.40;;;0.10;99.90;;;;;;5051046;28;20264;-68
2021/04/06 03:47:07;;;;;;;3.07;1.80;;;0.10;99.90;;;;;;5049917;28;20919;-68
2021/04/06 03:49:33;;;;;;;1.53;0.90;;;0.10;99.90;;;;;;5051267;28;20186;-66
2021/04/06 03:52:08;;;;;;;6.23;2.17;;;0.10;99.90;;;;;;5051180;28;20704;-70
2021/04/06 03:54:33;;;;;;;5.00;1.53;;;0.10;99.90;;;;;;5051319;28;20588;-68
2021/04/06 03:57:03;;;;;;;9.43;2.13;;;0.10;99.90;;;;;;5051389;28;20427;-67
2021/04/06 03:59:32;;;;;;;5.63;1.73;;;0.20;99.90;;;;;;5051287;28;20274;-68
2021/04/06 04:01:59;;;;;;;5.70;1.83;;;0.10;99.90;;;;;;5051271;28;20591;-68
2021/04/06 04:04:24;;;;;;;8.90;2.50;;;0.10;99.90;;;;;;5050846;28;20485;-68
2021/04/06 04:06:50;;;;;;;6.20;2.47;;;0.10;99.90;;;;;;5050700;28;20416;-66
2021/04/06 04:09:16;;;;;;;8.47;2.30;;;0.10;99.90;;;;;;5051160;28;20638;-66
2021/04/06 04:11:41;;;;;;;7.80;2.10;;;0.20;99.90;;;;;;5050905;28;20190;-67
2021/04/06 04:14:07;;;;;;;7.87;2.13;;;0.20;99.90;;;;;;5050931;28;20179;-68
2021/04/06 04:16:38;;;;;;;4.77;1.63;;;0.30;99.90;;;;;;5032930;28;20198;-68
2021/04/06 04:19:05;;;;;;;10.13;2.10;;;0.30;99.90;;;;;;5049896;28;20675;-66
2021/04/06 04:21:30;;;;;;;6.27;1.90;;;0.30;99.90;;;;;;5050716;28;20460;-69
2021/04/06 04:23:56;;;;;;;2.80;1.57;;;0.30;99.90;;;;;;5050989;28;20421;-66
2021/04/06 04:26:21;;;;;;;5.57;1.77;;;0.30;99.90;;;;;;5050718;28;20653;-67
2021/04/06 04:28:47;;;;;;;3.87;2.03;;;0.30;99.90;;;;;;5050697;28;20167;-67
2021/04/06 04:31:14;;;;;;;2.27;1.73;;;0.20;99.90;;;;;;5050744;28;20175;-68
2021/04/06 04:33:40;;;;;;;4.30;1.90;;;0.20;99.90;;;;;;5050393;28;20248;-67
2021/04/06 04:36:06;;;;;;;5.03;2.10;;;0.10;99.90;;;;;;5050642;28;20986;-67
2021/04/06 04:38:31;;;;;;;6.77;1.97;;;0.20;99.90;;;;;;5050475;28;20537;-67
2021/04/06 04:40:57;;;;;;;4.23;1.90;;;0.10;99.90;;;;;;5050170;28;20258;-67
2021/04/06 04:43:22;;;;;;;7.73;2.30;;;0.20;99.90;;;;;;5050625;28;20179;-69
2021/04/06 04:45:48;;;;;;;6.90;2.20;;;0.10;99.90;;;;;;5050661;28;20724;-67
2021/04/06 04:48:14;;;;;;;5.00;2.10;;;0.10;99.90;;;;;;5050139;28;20209;-66
2021/04/06 04:50:39;;;;;;;5.03;2.23;;;0.10;99.90;;;;;;5050514;28;20175;-67
2021/04/06 04:53:11;;;;;;;10.13;2.20;;;0.20;99.90;;;;;;5031595;28;20255;-66
2021/04/06 04:55:37;;;;;;;3.97;2.15;;;0.20;99.90;;;;;;5030194;28;20207;-67
2021/04/06 04:58:02;;;;;;;5.60;2.30;;;0.20;99.90;;;;;;5030019;28;20251;-67
2021/04/06 05:00:29;;;;;;;7.40;2.60;;;0.10;99.90;;;;;;5030188;28;20164;-66
2021/04/06 05:02:54;;;;;;;2.87;1.37;;;0.10;99.90;;;;;;5029221;28;20184;-64
2021/04/06 05:05:20;;;;;;;4.70;1.90;;;0.10;99.90;;;;;;5030418;28;20529;-67
2021/04/06 05:07:46;;;;;;;10.00;2.67;;;0.10;99.90;;;;;;5030397;28;20184;-68
2021/04/06 05:10:14;;;;;;;4.83;2.00;;;0.20;99.90;;;;;;5030123;28;20729;-67
2021/04/06 05:12:40;;;;;;;3.20;1.50;;;0.20;99.90;;;;;;5050430;28;20195;-66
2021/04/06 05:15:09;;;;;;;6.87;1.57;;;0.20;99.90;;;;;;5049206;28;20175;-68
2021/04/06 05:17:36;;;;;;;8.07;2.17;;;0.20;99.90;;;;;;5050461;28;20472;-65
2021/04/06 05:20:04;;;;;;;6.40;2.37;;;0.30;99.90;;;;;;5052372;28;20604;-66
2021/04/06 05:22:29;;;;;;;6.67;2.97;;;0.30;99.90;;;;;;5052691;28;20406;-67
2021/04/06 05:24:55;;;;;;;5.70;1.63;;;0.30;99.90;;;;;;5054130;28;20460;-66
2021/04/06 05:27:20;;;;;;;9.27;2.00;;;0.40;99.90;;;;;;5053821;28;20183;-67
2021/04/06 05:29:46;;;;;;;2.50;1.17;;;0.50;99.90;;;;;;5053691;28;20621;-65
2021/04/06 05:32:12;;;;;;;10.03;2.83;;;0.50;99.90;;;;;;5054072;28;20270;-68
2021/04/06 05:34:37;;;;;;;6.43;2.07;;;0.60;99.90;;;;;;5053691;28;20568;-68
2021/04/06 05:37:03;;;;;;;5.07;1.83;;;0.70;99.90;;;;;;5054026;28;20179;-65
2021/04/06 05:39:28;;;;;;;4.23;1.60;;;0.70;99.90;;;;;;5053633;28;20207;-67
2021/04/06 05:41:54;;;;;;;6.23;1.90;;;0.70;99.90;;;;;;5053810;28;20540;-67
2021/04/06 05:44:20;;;;;;;8.70;2.33;;;0.70;99.90;;;;;;5053317;28;20225;-65
2021/04/06 05:46:50;;;;;;;13.17;2.00;;;0.70;99.90;;;;;;5053304;28;20533;-66
2021/04/06 05:49:27;;;;;;;6.77;2.13;;;0.70;99.90;;;;;;5053677;28;20199;-67
2021/04/06 05:51:54;;;;;;;5.03;2.13;;;0.70;99.90;;;;;;5052222;28;20465;-68
2021/04/06 05:54:20;;;;;;;3.50;1.10;;;0.70;99.90;;;;;;5053430;28;20468;-66
2021/04/06 05:56:46;;;;;;;5.40;2.10;;;0.80;99.90;;;;;;5034397;28;20966;-66
2021/04/06 05:59:12;;;;;;;2.47;1.10;;;0.80;99.90;;;;;;5035293;28;20183;-66
2021/04/06 06:01:40;;;;;;;7.57;1.93;;;0.90;99.90;;;;;;5053045;28;20550;-70
2021/04/06 06:04:10;;;;;;;1.93;1.13;;;0.90;99.90;;;;;;5053444;28;20418;-65
2021/04/06 06:06:36;;;;;;;5.77;2.10;;;1.00;99.90;;;;;;5053490;28;20459;-66
2021/04/06 06:09:04;;;;;;;8.35;2.13;;;1.00;99.90;;;;;;5052661;28;20504;-69
2021/04/06 06:11:31;;;;;;;4.13;1.33;;;1.00;99.90;;;;;;5053119;28;20213;-67
2021/04/06 06:13:58;;;;;;;5.03;1.37;;;1.00;99.90;;;;;;5053031;28;20453;-66
2021/04/06 06:16:30;;;;;;;4.37;1.90;;;1.00;99.90;;;;;;5053310;28;20418;-66
2021/04/06 06:19:04;;;;;;;5.67;2.03;;;1.10;99.90;;;;;;5052871;28;20414;-67
2021/04/06 06:21:49;;;;;;;7.83;2.50;;;1.10;99.90;;;;;;5052620;28;20401;-66
2021/04/06 06:24:30;;;;;;;7.63;1.87;;;1.20;99.90;;;;;;5052717;28;20747;-67
2021/04/06 06:26:57;;;;;;;3.97;1.80;;;1.20;99.90;;;;;;5052902;28;20438;-67
2021/04/06 06:29:25;;;;;;;10.57;2.50;;;1.20;99.90;;;;;;5052761;28;20410;-66
2021/04/06 06:31:54;;;;;;;6.37;2.33;;;1.20;99.90;;;;;;5051579;28;20775;-68
2021/04/06 06:34:23;;;;;;;6.87;2.43;;;1.20;99.90;;;;;;5052518;28;20856;-67
2021/04/06 06:37:28;;;;;;;7.07;3.10;;;1.20;99.90;;;;;;5052739;28;20446;-66
2021/04/06 06:39:54;;;;;;;2.57;1.57;;;1.20;99.90;;;;;;5052219;28;20428;-66
2021/04/06 06:42:25;;;;;;;8.43;2.80;;;1.40;99.90;;;;;;5052246;28;20767;-66
2021/04/06 06:44:50;;;;;;;12.00;3.20;;;1.50;99.90;;;;;;5052421;28;20590;-69
2021/04/06 06:47:27;;;;;;;5.97;2.50;;;1.50;99.90;;;;;;5052387;28;20505;-69
2021/04/06 06:49:55;;;;;;;9.33;2.20;;;1.40;99.90;;;;;;5052144;28;20179;-66
2021/04/06 06:52:23;;;;;;;2.57;1.10;;;1.40;99.90;;;;;;5051957;28;20560;-66
2021/04/06 06:54:56;;;;;;;3.60;1.53;;;1.30;99.90;;;;;;5052330;28;20421;-68
2021/04/06 06:57:34;;;;;;;8.20;2.67;;;1.30;99.90;;;;;;5050941;28;20417;-68
2021/04/06 07:00:07;;;;;;;11.27;2.73;;;1.30;99.90;;;;;;5052212;28;20783;-68
2021/04/06 07:02:34;;;;;;;15.27;2.60;;;1.40;99.90;;;;;;5051950;28;20423;-67
2021/04/06 07:05:30;;;;;;;7.20;2.97;;;1.40;99.90;;;;;;5052205;28;20544;-66
2021/04/06 07:08:06;;;;;;;6.77;1.97;;;1.50;99.90;;;;;;5031288;28;20430;-66
2021/04/06 07:10:34;;;;;;;8.53;2.70;;;1.60;99.90;;;;;;5050959;28;20512;-67
2021/04/06 07:13:17;;;;;;;8.13;2.27;;;1.70;99.90;;;;;;5051957;28;20807;-67
2021/04/06 07:15:45;;;;;;;5.03;2.53;;;1.90;99.90;;;;;;5033852;28;20516;-68
2021/04/06 07:18:16;;;;;;;2.63;1.87;;;1.90;99.90;;;;;;5051968;28;20421;-67
2021/04/06 07:20:59;;;;;;;6.77;1.57;;;1.90;99.90;;;;;;5051386;28;20451;-67
2021/04/06 07:23:35;;;;;;;5.73;2.80;;;1.80;99.90;;;;;;5051932;28;20495;-68
2021/04/06 07:26:08;;;;;;;3.93;1.53;;;1.80;99.90;;;;;;5051760;28;20413;-66
2021/04/06 07:28:35;;;;;;;4.53;1.10;;;1.70;99.90;;;;;;5051692;28;20969;-68
2021/04/06 07:31:03;;;;;;;5.13;1.63;;;1.80;99.90;;;;;;5051479;28;20417;-66
2021/04/06 07:33:31;;;;;;;5.20;2.50;;;1.90;99.90;;;;;;5051615;28;20451;-67
2021/04/06 07:36:03;;;;;;;13.67;3.00;;;1.90;99.90;;;;;;5051442;28;20424;-68
2021/04/06 07:38:29;;;;;;;8.27;3.00;;;1.90;99.90;;;;;;5051584;28;20765;-66
2021/04/06 07:40:56;;;;;;;6.97;2.60;;;2.00;99.90;;;;;;5051638;28;20487;-67
2021/04/06 07:43:22;;;;;;;4.30;2.27;;;2.10;99.90;;;;;;5049406;28;20520;-67
2021/04/06 07:45:48;;;;;;;6.77;2.27;;;2.30;99.90;;;;;;5051319;28;20986;-66
2021/04/06 07:48:44;;;;;;;4.43;1.80;;;2.20;99.90;;;;;;5051168;28;20566;-67
2021/04/06 07:51:27;;;;;;;3.10;1.53;;;2.20;99.90;;;;;;5050129;28;20254;-64
2021/04/06 07:53:54;;;;;;;6.20;2.63;;;2.20;99.90;;;;;;5050140;28;20965;-64
2021/04/06 07:56:46;;;;;;;7.13;2.70;;;2.20;99.90;;;;;;5050947;28;20412;-65
2021/04/06 07:59:18;;;;;;;9.00;2.93;;;2.30;99.90;;;;;;5042887;28;20410;-68
2021/04/06 08:01:44;;;;;;;9.67;3.10;;;2.40;99.90;;;;;;5048371;28;20406;-67
2021/04/06 08:04:10;;;;;;;6.63;2.47;;;2.70;99.90;;;;;;5051081;28;20926;-70
2021/04/06 08:06:54;;;;;;;9.97;3.30;;;2.90;99.90;;;;;;5050792;28;20402;-69
2021/04/06 08:09:29;;;;;;;9.70;2.60;;;3.00;99.90;;;;;;5049219;28;20475;-69
2021/04/06 08:12:03;;;;;;;8.73;2.70;;;2.90;99.90;;;;;;5048053;28;20456;-68
2021/04/06 08:14:32;;;;;;;8.07;2.70;;;3.00;99.90;;;;;;5046090;28;20410;-71
2021/04/06 08:17:25;;;;;;;10.43;2.90;;;3.10;99.90;;;;;;5038488;28;20424;-69
2021/04/06 08:19:55;;;;;;;5.57;2.20;;;3.20;99.90;;;;;;5049932;28;20424;-67
2021/04/06 08:22:22;;;;;;;5.13;2.30;;;3.30;99.90;;;;;;5050076;28;20410;-69
2021/04/06 08:25:17;;;;;;;9.07;3.07;;;3.50;99.60;;;;;;5050710;28;20982;-69
2021/04/06 08:27:45;;;;;;;6.37;2.40;;;3.50;99.40;;;;;;5015430;28;20434;-69
2021/04/06 08:30:19;;;;;;;7.27;2.47;;;3.50;99.30;;;;;;5029966;28;20429;-70
2021/04/06 08:33:00;;;;;;;8.47;2.40;;;3.50;99.40;;;;;;5050270;28;20444;-69
2021/04/06 08:35:47;;;;;;;7.00;2.30;;;3.50;99.50;;;;;;5047390;28;20414;-70
2021/04/06 08:38:22;;;;;;;10.00;3.30;;;3.60;98.70;;;;;;5047048;28;20422;-66
2021/04/06 08:41:05;;;;;;;6.47;2.50;;;3.60;96.80;;;;;;5047235;28;22134;-69
2021/04/06 08:43:50;;;;;;;7.57;2.40;;;3.60;96.60;;;;;;5050388;28;20422;-68
2021/04/06 08:46:23;;;;;;;5.50;2.60;;;3.60;97.50;;;;;;5049393;28;20405;-68
2021/04/06 08:48:50;;;;;;;7.23;2.27;;;3.80;97.60;;;;;;5049470;28;21046;-68
2021/04/06 08:51:37;;;;;;;6.77;2.30;;;3.70;95.80;;;;;;5049074;28;21648;-67
2021/04/06 08:54:09;;;;;;;4.97;2.70;;;3.80;96.30;;;;;;5029531;28;20461;-68
2021/04/06 08:56:40;;;;;;;6.73;2.50;;;3.80;96.10;;;;;;5033380;28;20433;-70
2021/04/06 08:59:17;;;;;;;5.77;2.53;;;3.80;95.50;;;;;;5034578;28;20501;-66
2021/04/06 09:01:47;;;;;;;4.97;2.50;;;3.80;94.30;;;;;;5016935;28;20422;-68
2021/04/06 09:04:17;;;;;;;4.40;1.97;;;3.80;95.90;;;;;;5033734;28;20520;-68
2021/04/06 09:06:43;;;;;;;4.93;1.43;;;3.90;93.90;;;;;;5034633;28;20480;-69
2021/04/06 09:09:09;;;;;;;6.90;2.80;;;3.90;94.20;;;;;;5034581;28;20414;-70
2021/04/06 09:11:36;;;;;;;6.23;2.30;;;3.90;95.10;;;;;;5034665;28;20468;-67
2021/04/06 09:14:02;;;;;;;6.83;2.30;;;3.90;93.90;;;;;;5034780;28;20480;-70
2021/04/06 09:16:29;;;;;;;8.67;2.20;;;4.00;94.00;;;;;;5011296;28;20418;-68
2021/04/06 09:18:59;;;;;;;7.10;2.10;;;4.10;92.70;;;;;;5034975;28;20183;-69
2021/04/06 09:21:27;;;;;;;7.37;2.33;;;4.20;93.40;;;;;;5034800;28;20415;-68
2021/04/06 09:23:55;;;;;;;5.47;2.10;;;4.20;92.90;;;;;;5034430;28;20900;-67
2021/04/06 09:26:21;;;;;;;7.93;3.87;;;4.30;92.70;;;;;;5034778;28;20835;-68
2021/04/06 09:28:47;;;;;;;6.93;2.27;;;4.40;92.50;;;;;;5034349;28;20735;-68
2021/04/06 09:31:13;;;;;;;6.80;2.57;;;4.40;92.60;;;;;;5034328;28;20422;-69
2021/04/06 09:33:39;;;;;;;7.63;2.40;;;4.40;91.70;;;;;;5034026;28;20457;-70
2021/04/06 09:36:11;;;;;;;8.17;2.17;;;4.40;92.60;;;;;;5034474;28;20179;-69
2021/04/06 09:38:38;;;;;;;8.23;2.53;;;4.50;93.00;;;;;;5034454;28;20179;-68
2021/04/06 09:41:04;;;;;;;6.67;2.40;;;4.60;90.80;;;;;;5034479;28;20421;-68
2021/04/06 09:43:29;;;;;;;3.77;2.00;;;4.70;89.70;;;;;;5034355;28;20422;-66
2021/04/06 09:45:55;;;;;;;5.40;2.27;;;4.70;88.60;;;;;;5034553;28;20214;-67
2021/04/06 09:48:21;;;;;;;4.37;1.90;;;4.70;85.50;;;;;;5034540;28;20191;-67
2021/04/06 09:51:15;;;;;;;6.07;2.40;;;4.70;86.10;;;;;;5034366;28;20254;-67
2021/04/06 09:53:41;;;;;;;5.43;2.70;;;4.90;87.70;;;;;;5030252;28;20226;-66
2021/04/06 09:56:07;;;;;;;5.90;1.90;;;5.10;87.20;;;;;;5053957;28;20433;-69
2021/04/06 09:58:36;;;;;;;5.07;1.47;;;5.20;85.00;;;;;;5054248;28;20738;-67
2021/04/06 10:01:02;;;;;;;4.87;2.10;;;5.20;84.40;;;;;;5053820;28;20425;-67
2021/04/06 10:03:27;;;;;;;7.20;2.27;;;5.20;80.00;;;;;;5053722;28;20940;-68
2021/04/06 10:06:05;;;;;;;4.97;1.23;;;5.20;81.60;;;;;;5053148;28;20175;-69
2021/04/06 10:08:33;;;;;;;4.17;1.70;;;5.20;79.20;;;;;;5052023;28;20240;-70
2021/04/06 10:10:58;;;;;;;5.30;1.93;;;5.40;84.00;;;;;;5053301;28;20452;-68
2021/04/06 10:13:24;;;;;;;5.87;1.97;;;5.60;78.90;;;;;;5053004;28;20461;-66
2021/04/06 10:16:04;;;;;;;7.17;1.67;;;5.80;76.70;;;;;;5053392;28;20182;-65
2021/04/06 10:18:40;;;;;;;8.20;1.67;;;5.80;74.60;;;;;;5052022;28;20509;-69
2021/04/06 10:21:17;;;;;;;5.37;1.70;;;5.90;74.30;;;;;;5053225;28;20600;-67
2021/04/06 10:23:43;;;;;;;5.37;1.77;;;6.10;73.20;;;;;;5052981;28;20503;-68
2021/04/06 10:26:19;;;;;;;8.60;1.83;;;6.10;73.50;;;;;;5053139;28;20449;-67
2021/04/06 10:28:45;;;;;;;6.43;1.90;;;5.90;69.20;;;;;;5052993;28;20197;-67
2021/04/06 10:31:12;;;;;;;7.73;1.83;;;5.80;73.30;;;;;;5052910;28;20429;-67
2021/04/06 10:33:40;;;;;;;4.73;1.70;;;5.90;74.00;;;;;;5052027;28;20194;-69
2021/04/06 10:36:17;;;;;;;6.00;1.73;;;6.10;73.90;;;;;;5051389;28;20420;-66
2021/04/06 10:38:43;;;;;;;4.93;1.47;;;6.20;71.10;;;;;;5052581;28;20445;-69
2021/04/06 10:41:18;;;;;;;6.53;2.03;;;6.20;70.80;;;;;;5053050;28;20943;-69
2021/04/06 10:43:49;;;;;;;4.93;2.37;;;6.20;71.20;;;;;;5052551;28;20501;-67
2021/04/06 10:46:24;;;;;;;3.90;1.60;;;6.30;72.70;;;;;;5052574;28;20429;-69
2021/04/06 10:48:53;;;;;;;5.07;1.70;;;6.20;69.60;;;;;;5052567;28;20417;-67
2021/04/06 10:51:25;;;;;;;3.80;1.37;;;6.10;70.10;;;;;;5052771;28;20437;-69
2021/04/06 10:53:53;;;;;;;6.03;1.80;;;6.20;67.80;;;;;;5033285;28;20494;-67
2021/04/06 10:56:26;;;;;;;3.57;1.57;;;6.20;67.00;;;;;;5032389;28;20501;-69
2021/04/06 10:58:51;;;;;;;4.53;1.43;;;6.20;64.40;;;;;;5032203;28;20517;-68
2021/04/06 11:01:41;;;;;;;5.93;1.50;;;6.20;64.80;;;;;;5032205;28;20506;-67
2021/04/06 11:04:16;;;;;;;7.03;1.70;;;6.10;65.90;;;;;;5031689;28;20190;-67
2021/04/06 11:06:58;;;;;;;2.37;1.40;;;6.20;70.30;;;;;;5032078;28;20512;-68
2021/04/06 11:09:33;;;;;;;5.87;2.00;;;6.20;72.10;;;;;;5032245;28;20414;-68
2021/04/06 11:11:59;;;;;;;4.67;1.63;;;6.10;69.70;;;;;;5031117;28;20425;-70
2021/04/06 11:14:27;;;;;;;5.90;2.10;;;6.20;70.20;;;;;;5032055;28;20414;-67
2021/04/06 11:16:54;;;;;;;5.10;1.63;;;6.40;70.30;;;;;;5031370;28;20905;-69
2021/04/06 11:19:31;;;;;;;4.37;1.70;;;6.70;68.60;;;;;;5031763;28;20419;-67
2021/04/06 11:22:11;;;;;;;3.53;1.47;;;7.10;68.60;;;;;;5051314;28;20926;-69
2021/04/06 11:24:37;;;;;;;5.10;1.50;;;7.50;68.10;;;;;;5052187;28;20504;-68
2021/04/06 11:27:05;;;;;;;2.77;0.80;;;7.80;63.60;;;;;;5051722;28;20425;-68
2021/04/06 11:29:35;;;;;;;2.97;1.33;;;7.80;58.40;;;;;;5033814;28;20784;-67
2021/04/06 11:32:09;;;;;;;6.77;2.23;;;7.60;59.90;;;;;;5051846;28;20429;-66
2021/04/06 11:34:35;;;;;;;4.00;1.03;;;7.60;62.60;;;;;;5050786;28;20432;-69
2021/04/06 11:37:01;;;;;;;4.23;0.93;;;6.60;77.40;;;;;;5051600;28;20471;-67
2021/04/06 11:39:30;;;;;;;2.53;1.00;;;5.60;90.70;;;;;;5051656;28;20468;-68
2021/04/06 11:42:04;;;;;;;5.13;1.30;;;5.20;95.10;;;;;;5051741;28;20441;-65
2021/04/06 11:44:30;;;;;;;3.60;1.30;;;4.90;91.40;;;;;;5051191;28;20406;-68
2021/04/06 11:46:57;;;;;;;1.90;1.00;;;4.70;94.90;;;;;;5051775;28;20422;-67
2021/04/06 11:49:23;;;;;;;3.23;1.37;;;4.70;93.00;;;;;;5050157;28;20416;-68
2021/04/06 11:51:49;;;;;;;2.33;1.13;;;4.60;94.10;;;;;;5049773;28;20508;-68
2021/04/06 11:54:17;;;;;;;5.83;2.10;;;4.60;94.30;;;;;;5031342;28;20180;-67
2021/04/06 11:56:43;;;;;;;4.53;1.27;;;4.80;96.90;;;;;;5027087;28;20422;-66
2021/04/06 11:59:09;;;;;;;2.80;1.33;;;4.90;94.10;;;;;;5031502;28;20418;-66
2021/04/06 12:01:35;;;;;;;3.83;1.37;;;5.10;93.80;;;;;;5031109;28;20168;-67
2021/04/06 12:04:01;;;;;;;2.20;1.37;;;5.40;95.30;;;;;;5031274;28;20233;-67
2021/04/06 12:06:27;;;;;;;5.23;1.07;;;5.80;95.20;;;;;;5031680;28;20543;-68
2021/04/06 12:08:53;;;;;;;2.13;1.20;;;5.90;92.80;;;;;;5031031;28;20458;-68
2021/04/06 12:11:20;;;;;;;2.90;1.73;;;5.90;92.30;;;;;;5031219;28;20211;-68
2021/04/06 12:13:46;;;;;;;2.87;1.30;;;6.00;90.30;;;;;;5031248;28;20752;-67
2021/04/06 12:16:11;;;;;;;5.13;1.37;;;6.20;87.40;;;;;;5031606;28;20423;-67
2021/04/06 12:18:37;;;;;;;2.33;1.23;;;6.50;85.20;;;;;;5030885;28;20422;-67
2021/04/06 12:21:04;;;;;;;3.07;0.73;;;6.90;84.20;;;;;;5030597;28;20172;-68
2021/04/06 12:23:30;;;;;;;3.73;1.33;;;7.60;76.90;;;;;;5031204;28;20422;-66
2021/04/06 12:25:56;;;;;;;1.60;1.00;;;8.00;76.90;;;;;;5031020;28;20426;-66
2021/04/06 12:28:21;;;;;;;3.27;1.40;;;8.30;66.90;;;;;;5031079;28;20183;-68
2021/04/06 12:30:47;;;;;;;6.37;1.50;;;8.40;66.10;;;;;;5030692;28;20549;-67
2021/04/06 12:33:13;;;;;;;1.63;1.00;;;8.40;66.40;;;;;;5030841;28;20555;-68
2021/04/06 12:35:39;;;;;;;6.13;1.50;;;8.40;64.80;;;;;;5030686;28;20410;-68
2021/04/06 12:38:05;;;;;;;4.03;2.03;;;8.50;67.60;;;;;;5031183;28;20179;-68
2021/04/06 12:40:32;;;;;;;4.97;1.90;;;8.60;62.20;;;;;;5030982;28;20172;-68
2021/04/06 12:42:58;;;;;;;9.13;4.20;;;8.90;66.60;;;;;;5030929;28;20183;-69
2021/04/06 12:45:27;;;;;;;2.97;1.00;;;9.20;61.70;;;;;;5031020;28;20734;-68
2021/04/06 12:47:53;;;;;;;3.07;1.20;;;9.40;59.80;;;;;;5030682;28;20414;-71
2021/04/06 12:50:21;;;;;;;5.07;1.30;;;9.60;58.50;;;;;;5030659;28;20415;-68
2021/04/06 12:52:47;;;;;;;1.10;0.73;;;9.40;59.10;;;;;;5036179;28;20474;-67
2021/04/06 12:55:13;;;;;;;3.43;1.10;;;9.30;58.00;;;;;;5043959;28;20471;-67
2021/04/06 12:57:38;;;;;;;4.30;1.30;;;9.10;56.90;;;;;;5039358;28;20180;-68
2021/04/06 13:00:06;;;;;;;4.10;1.00;;;8.80;57.10;;;;;;5031280;28;20633;-70
2021/04/06 13:02:33;;;;;;;4.87;1.23;;;8.80;60.30;;;;;;5050731;28;20190;-67
2021/04/06 13:04:59;;;;;;;4.30;1.10;;;9.20;59.60;;;;;;5050782;28;20413;-66
2021/04/06 13:07:25;;;;;;;3.33;1.00;;;9.30;57.50;;;;;;5050178;28;20548;-65
2021/04/06 13:09:50;;;;;;;3.60;1.00;;;9.60;60.30;;;;;;5050452;28;20512;-66